createdAt,value
2022-10-14T00:01:15.122Z,9.25
2022-10-14T00:03:43.142Z,13.90
2022-10-14T00:06:18.943Z,8.05
2022-10-14T00:08:47.657Z,9.88
2022-10-14T00:11:23.322Z,9.07
2022-10-14T00:13:54.353Z,12.57
2022-10-14T00:16:25.164Z,10.70
2022-10-14T00:18:52.379Z,10.98
2022-10-14T00:21:20.275Z,10.32
2022-10-14T00:23:47.449Z,12.18
2022-10-14T00:26:17.215Z,12.73
2022-10-14T00:28:44.880Z,11.10
2022-10-14T00:31:11.973Z,13.95
2022-10-14T00:33:39.134Z,11.50
2022-10-14T00:36:07.937Z,16.25
2022-10-14T00:38:36.253Z,12.25
2022-10-14T00:41:03.818Z,14.48
2022-10-14T00:43:53.946Z,14.90
2022-10-14T00:46:21.401Z,18.10
2022-10-14T00:48:54.688Z,14.60
2022-10-14T00:51:22.141Z,16.15
2022-10-14T00:53:51.168Z,18.30
2022-10-14T00:56:23.538Z,13.73
2022-10-14T00:58:51.936Z,18.77
2022-10-14T01:01:19.081Z,15.43
2022-10-14T01:03:46.361Z,16.40
2022-10-14T01:06:36.710Z,14.93
2022-10-14T01:09:19.363Z,14.95
2022-10-14T01:12:09.814Z,13.63
2022-10-14T01:14:59.763Z,14.75
2022-10-14T01:17:50.133Z,15.73
2022-10-14T01:20:17.176Z,13.23
2022-10-14T01:23:27.178Z,12.57
2022-10-14T01:26:47.848Z,18.63
2022-10-14T01:29:48.365Z,16.17
2022-10-14T01:32:27.305Z,19.13
2022-10-14T01:35:36.139Z,19.50
2022-10-14T01:38:17.661Z,23.02
2022-10-14T01:40:55.261Z,17.42
2022-10-14T01:43:25.714Z,13.95
2022-10-14T01:45:55.833Z,17.08
2022-10-14T01:48:28.155Z,33.20
2022-10-14T01:50:59.967Z,18.88
2022-10-14T01:53:32.781Z,18.50
2022-10-14T01:56:01.430Z,14.93
2022-10-14T01:58:34.376Z,18.35
2022-10-14T02:01:04.801Z,17.10
2022-10-14T02:03:42.246Z,18.23
2022-10-14T02:06:23.021Z,19.08
2022-10-14T02:09:03.680Z,21.80
2022-10-14T02:11:51.227Z,17.63
2022-10-14T02:15:13.799Z,16.60
2022-10-14T02:18:03.640Z,17.58
2022-10-14T02:20:47.555Z,17.02
2022-10-14T02:23:41.695Z,19.65
2022-10-14T02:26:10.044Z,18.15
2022-10-14T02:28:38.257Z,16.20
2022-10-14T02:31:10.786Z,14.35
2022-10-14T02:33:42.055Z,16.63
2022-10-14T02:36:12.410Z,18.58
2022-10-14T02:38:41.371Z,13.77
2022-10-14T02:41:14.847Z,19.48
2022-10-14T02:43:42.038Z,16.05
2022-10-14T02:46:09.176Z,14.27
2022-10-14T02:48:36.612Z,18.80
2022-10-14T02:51:03.817Z,16.08
2022-10-14T02:53:30.951Z,17.65
2022-10-14T02:55:59.772Z,13.38
2022-10-14T02:58:26.952Z,13.82
2022-10-14T03:00:56.726Z,17.05
2022-10-14T03:03:25.943Z,15.82
2022-10-14T03:05:53.062Z,14.68
2022-10-14T03:08:21.159Z,16.95
2022-10-14T03:10:48.968Z,12.93
2022-10-14T03:13:16.582Z,14.32
2022-10-14T03:15:50.587Z,18.45
2022-10-14T03:18:19.376Z,16.65
2022-10-14T03:20:49.240Z,13.35
2022-10-14T03:23:21.724Z,15.63
2022-10-14T03:25:51.399Z,12.63
2022-10-14T03:28:26.422Z,15.93
2022-10-14T03:31:13.843Z,13.30
2022-10-14T03:34:01.130Z,14.25
2022-10-14T03:36:29.736Z,12.43
2022-10-14T03:38:58.121Z,16.38
2022-10-14T03:41:47.708Z,14.73
2022-10-14T03:44:18.535Z,13.18
2022-10-14T03:47:05.659Z,16.00
2022-10-14T03:49:34.354Z,12.05
2022-10-14T03:52:09.564Z,18.70
2022-10-14T03:54:38.844Z,16.25
2022-10-14T03:57:06.235Z,13.98
2022-10-14T03:59:40.862Z,24.60
2022-10-14T04:02:08.253Z,17.58
2022-10-14T04:04:35.414Z,14.05
2022-10-14T04:07:03.125Z,13.75
2022-10-14T04:09:31.034Z,16.80
2022-10-14T04:11:58.225Z,17.95
2022-10-14T04:14:48.411Z,12.32
2022-10-14T04:17:15.671Z,16.92
2022-10-14T04:19:43.848Z,15.25
2022-10-14T04:22:13.965Z,13.37
2022-10-14T04:24:41.039Z,14.65
2022-10-14T04:27:08.303Z,12.77
2022-10-14T04:29:44.754Z,17.70
2022-10-14T04:32:18.104Z,75.72
2022-10-14T04:34:45.835Z,60.38
2022-10-14T04:37:16.960Z,13.82
2022-10-14T04:39:49.969Z,25.52
2022-10-14T04:42:17.707Z,17.90
2022-10-14T04:44:48.816Z,15.60
2022-10-14T04:47:17.733Z,18.38
2022-10-14T04:49:50.339Z,19.13
2022-10-14T04:52:20.902Z,9.52
2022-10-14T04:54:56.665Z,13.27
2022-10-14T04:57:34.227Z,17.08
2022-10-14T05:00:02.525Z,19.30
2022-10-14T05:02:52.665Z,15.07
2022-10-14T05:05:23.805Z,12.95
2022-10-14T05:07:56.080Z,15.50
2022-10-14T05:10:34.445Z,16.02
2022-10-14T05:13:04.215Z,12.90
2022-10-14T05:15:37.003Z,9.82
2022-10-14T05:18:12.679Z,11.43
2022-10-14T05:20:53.766Z,11.55
2022-10-14T05:23:23.460Z,14.00
2022-10-14T05:25:52.070Z,12.93
2022-10-14T05:28:20.297Z,11.15
2022-10-14T05:30:49.993Z,13.32
2022-10-14T05:33:18.681Z,11.90
2022-10-14T05:35:58.496Z,11.40
2022-10-14T05:38:26.819Z,13.02
2022-10-14T05:40:55.740Z,12.23
2022-10-14T05:43:32.024Z,11.68
2022-10-14T05:46:01.989Z,14.20
2022-10-14T05:48:34.639Z,21.90
2022-10-14T05:51:03.453Z,15.25
2022-10-14T05:53:33.441Z,17.77
2022-10-14T05:56:09.554Z,20.63
2022-10-14T05:58:39.056Z,11.50
2022-10-14T06:01:10.072Z,16.63
2022-10-14T06:03:40.225Z,14.82
2022-10-14T06:06:14.844Z,12.57
2022-10-14T06:08:43.133Z,12.63
2022-10-14T06:11:10.234Z,16.48
2022-10-14T06:13:37.726Z,12.98
2022-10-14T06:16:10.218Z,11.25
2022-10-14T06:18:38.008Z,19.35
2022-10-14T06:21:07.693Z,19.25
2022-10-14T06:23:44.002Z,18.13
2022-10-14T06:26:14.894Z,20.65
2022-10-14T06:29:04.925Z,15.60
2022-10-14T06:31:35.172Z,18.20
2022-10-14T06:34:08.028Z,14.13
2022-10-14T06:36:36.868Z,14.02
2022-10-14T06:39:05.312Z,14.70
2022-10-14T06:41:33.034Z,18.45
2022-10-14T06:44:00.214Z,16.50
2022-10-14T06:46:27.479Z,13.48
2022-10-14T06:48:54.682Z,17.67
2022-10-14T06:51:21.823Z,12.85
2022-10-14T06:53:48.906Z,15.25
2022-10-14T06:56:16.039Z,12.27
2022-10-14T06:58:43.173Z,17.02
2022-10-14T07:01:10.235Z,15.88
2022-10-14T07:03:39.182Z,14.10
2022-10-14T07:06:07.313Z,16.45
2022-10-14T07:08:35.027Z,5.70
2022-10-14T07:11:02.160Z,6.72
2022-10-14T07:13:29.373Z,8.05
2022-10-14T07:15:56.667Z,12.57
2022-10-14T07:18:23.863Z,5.50
2022-10-14T07:20:51.004Z,5.85
2022-10-14T07:23:18.375Z,8.68
2022-10-14T07:25:47.771Z,9.68
2022-10-14T07:28:14.966Z,9.23
2022-10-14T07:30:42.041Z,4.85
2022-10-14T07:33:09.141Z,3.70
2022-10-14T07:35:39.161Z,2.90
2022-10-14T07:38:06.250Z,2.83
2022-10-14T07:40:33.408Z,4.13
2022-10-14T07:43:00.485Z,7.38
2022-10-14T07:45:27.547Z,6.97
2022-10-14T07:47:54.672Z,6.53
2022-10-14T07:50:21.779Z,5.43
2022-10-14T07:52:49.118Z,7.03
2022-10-14T07:55:16.365Z,7.85
2022-10-14T07:57:43.645Z,8.88
2022-10-14T08:00:11.378Z,7.57
2022-10-14T08:02:41.303Z,9.00
2022-10-14T08:05:33.017Z,11.27
2022-10-14T08:07:55.452Z,10.40
2022-10-14T08:10:22.594Z,8.20
2022-10-14T08:12:50.251Z,8.40
2022-10-14T08:15:17.431Z,6.75
2022-10-14T08:17:44.530Z,8.80
2022-10-14T08:20:12.611Z,7.10
2022-10-14T08:22:39.704Z,10.25
2022-10-14T08:25:07.150Z,9.27
2022-10-14T08:27:34.191Z,6.00
2022-10-14T08:30:01.740Z,3.97
2022-10-14T08:32:31.302Z,2.75
2022-10-14T08:34:58.338Z,2.33
2022-10-14T08:37:25.548Z,3.55
2022-10-14T08:39:52.650Z,6.50
2022-10-14T08:42:58.743Z,9.98
2022-10-14T08:45:49.926Z,12.40
2022-10-14T08:48:21.997Z,9.38
2022-10-14T08:50:58.763Z,5.53
2022-10-14T08:53:33.260Z,5.60
2022-10-14T08:56:01.901Z,9.95
2022-10-14T08:58:51.065Z,7.85
2022-10-14T09:01:33.675Z,8.15
2022-10-14T09:04:06.905Z,4.82
2022-10-14T09:06:38.519Z,4.20
2022-10-14T09:09:30.756Z,5.60
2022-10-14T09:12:05.148Z,10.23
2022-10-14T09:14:37.567Z,6.60
2022-10-14T09:17:13.995Z,3.72
2022-10-14T09:19:47.067Z,8.95
2022-10-14T09:22:15.748Z,3.95
2022-10-14T09:24:49.815Z,3.13
2022-10-14T09:27:21.951Z,7.93
2022-10-14T09:29:59.152Z,8.48
2022-10-14T09:32:55.685Z,6.25
2022-10-14T09:35:33.810Z,17.95
2022-10-14T09:38:01.037Z,7.70
2022-10-14T09:40:33.670Z,5.40
2022-10-14T09:43:16.002Z,8.98
2022-10-14T09:46:07.971Z,6.65
2022-10-14T09:48:51.959Z,5.75
2022-10-14T09:51:36.935Z,7.40
2022-10-14T09:54:05.241Z,5.10
2022-10-14T09:56:45.324Z,5.60
2022-10-14T09:59:19.725Z,9.90
2022-10-14T10:02:02.095Z,7.05
2022-10-14T10:04:31.983Z,4.07
2022-10-14T10:07:26.466Z,4.05
2022-10-14T10:09:58.860Z,6.43
2022-10-14T10:12:37.639Z,5.25
2022-10-14T10:15:09.057Z,7.28
2022-10-14T10:17:40.793Z,10.68
2022-10-14T10:20:20.327Z,10.80
2022-10-14T10:22:47.504Z,6.30
2022-10-14T10:25:14.527Z,8.88
2022-10-14T10:27:52.543Z,5.65
2022-10-14T10:30:28.095Z,5.30
2022-10-14T10:33:15.934Z,12.73
2022-10-14T10:36:26.393Z,7.35
2022-10-14T10:39:05.853Z,1.90
2022-10-14T10:42:00.697Z,16.42
2022-10-14T10:45:21.012Z,6.80
2022-10-14T10:48:06.558Z,7.78
2022-10-14T10:51:17.028Z,6.60
2022-10-14T10:53:47.041Z,9.98
2022-10-14T10:56:20.308Z,7.88
2022-10-14T10:59:17.327Z,11.50
2022-10-14T11:02:24.839Z,5.22
2022-10-14T11:05:30.890Z,5.85
2022-10-14T11:08:47.614Z,7.45
2022-10-14T11:11:45.129Z,5.30
2022-10-14T11:14:31.039Z,5.75
2022-10-14T11:17:16.450Z,5.97
2022-10-14T11:20:05.680Z,12.52
2022-10-14T11:23:11.760Z,13.02
2022-10-14T11:26:02.696Z,3.55
2022-10-14T11:28:53.781Z,2.50
2022-10-14T11:31:35.387Z,4.22
2022-10-14T11:34:11.335Z,2.67
2022-10-14T11:36:47.922Z,2.83
2022-10-14T11:39:43.478Z,4.15
2022-10-14T11:42:38.680Z,2.28
2022-10-14T11:45:40.631Z,5.05
2022-10-14T11:48:29.440Z,3.45
2022-10-14T11:51:16.087Z,5.38
2022-10-14T11:53:52.197Z,4.47
2022-10-14T11:56:37.393Z,12.77
2022-10-14T11:59:21.355Z,5.47
2022-10-14T12:01:52.188Z,2.83
2022-10-14T12:07:17.907Z,5.60
2022-10-14T12:09:57.411Z,2.42
2022-10-14T12:12:32.471Z,6.95
2022-10-14T12:15:05.877Z,5.40
2022-10-14T12:17:56.090Z,6.13
2022-10-14T12:20:46.124Z,7.63
2022-10-14T12:23:29.900Z,6.93
2022-10-14T12:26:19.837Z,3.90
2022-10-14T12:28:48.028Z,4.67
2022-10-14T12:31:21.696Z,5.97
2022-10-14T12:34:15.991Z,5.00
2022-10-14T12:36:48.776Z,11.85
2022-10-14T12:39:18.654Z,4.63
2022-10-14T12:44:56.306Z,3.95
2022-10-14T12:47:32.032Z,8.13
2022-10-14T12:50:03.089Z,5.22
2022-10-14T12:52:34.144Z,3.60
2022-10-14T12:55:08.511Z,3.08
2022-10-14T12:57:40.204Z,3.00
2022-10-14T13:00:21.510Z,4.10
2022-10-14T13:02:51.413Z,2.30
2022-10-14T13:05:31.078Z,8.00
2022-10-14T13:08:16.121Z,4.95
2022-10-14T13:10:47.284Z,9.18
2022-10-14T13:13:47.834Z,1.73
2022-10-14T13:16:20.904Z,3.80
2022-10-14T13:19:02.507Z,6.90
2022-10-14T13:21:36.430Z,7.15
2022-10-14T13:24:17.984Z,20.02
2022-10-14T13:26:54.410Z,10.05
2022-10-14T13:29:49.433Z,8.27
2022-10-14T13:32:35.358Z,15.43
2022-10-14T13:35:06.145Z,11.80
2022-10-14T13:37:44.813Z,14.25
2022-10-14T13:40:24.497Z,9.15
2022-10-14T13:42:56.883Z,13.35
2022-10-14T13:45:42.195Z,13.10
2022-10-14T13:48:16.990Z,14.48
2022-10-14T13:50:47.035Z,11.95
2022-10-14T13:53:16.895Z,8.38
2022-10-14T13:55:49.175Z,10.03
2022-10-14T13:58:25.150Z,10.38
2022-10-14T14:01:02.481Z,15.38
2022-10-14T14:03:37.002Z,11.07
2022-10-14T14:06:11.500Z,11.05
2022-10-14T14:08:50.292Z,13.10
2022-10-14T14:11:24.049Z,8.20
2022-10-14T14:14:29.870Z,10.07
2022-10-14T14:17:02.898Z,11.43
2022-10-14T14:19:35.622Z,12.00
2022-10-14T14:22:30.508Z,12.52
2022-10-14T14:25:33.966Z,10.95
2022-10-14T14:28:06.082Z,11.68
2022-10-14T14:30:38.915Z,16.60
2022-10-14T14:33:13.721Z,17.42
2022-10-14T14:35:50.412Z,13.82
2022-10-14T14:38:26.127Z,20.90
2022-10-14T14:41:02.235Z,12.18
2022-10-14T14:43:34.585Z,16.23
2022-10-14T14:46:05.456Z,17.10
2022-10-14T14:48:34.183Z,13.27
2022-10-14T14:51:02.038Z,16.02
2022-10-14T14:53:31.969Z,13.70
2022-10-14T14:56:06.820Z,9.10
2022-10-14T14:58:40.502Z,13.70
2022-10-14T15:01:29.611Z,8.45
2022-10-14T15:04:13.587Z,9.27
2022-10-14T15:06:51.763Z,10.00
2022-10-14T15:09:32.259Z,12.63
2022-10-14T15:12:01.965Z,19.58
2022-10-14T15:14:49.970Z,6.07
2022-10-14T15:17:36.944Z,6.03
2022-10-14T15:20:04.094Z,11.55
2022-10-14T15:22:36.386Z,13.57
2022-10-14T15:25:30.906Z,6.00
2022-10-14T15:28:02.852Z,6.80
2022-10-14T15:30:37.397Z,12.57
2022-10-14T15:33:17.917Z,6.97
2022-10-14T15:35:54.277Z,10.95
2022-10-14T15:38:23.159Z,10.45
2022-10-14T15:40:51.043Z,10.98
2022-10-14T15:43:24.958Z,8.35
2022-10-14T15:46:17.066Z,12.77
2022-10-14T15:48:53.032Z,9.75
2022-10-14T15:51:21.688Z,12.82
2022-10-14T15:53:49.152Z,21.77
2022-10-14T15:56:17.314Z,15.43
2022-10-14T15:58:47.339Z,13.52
2022-10-14T16:03:52.420Z,13.32
2022-10-14T16:06:22.686Z,12.38
2022-10-14T16:08:53.212Z,16.95
2022-10-14T16:11:25.599Z,18.45
2022-10-14T16:13:53.315Z,20.35
2022-10-14T16:16:46.636Z,15.63
2022-10-14T16:19:13.832Z,9.55
2022-10-14T16:21:41.058Z,10.48
2022-10-14T16:24:15.222Z,12.75
2022-10-14T16:26:42.390Z,14.07
2022-10-14T16:29:12.186Z,10.57
2022-10-14T16:31:39.302Z,15.02
2022-10-14T16:34:06.396Z,12.63
2022-10-14T16:36:33.644Z,16.73
2022-10-14T16:39:03.457Z,14.15
2022-10-14T16:41:31.073Z,13.48
2022-10-14T16:43:58.280Z,15.27
2022-10-14T16:46:47.714Z,17.00
2022-10-14T16:49:14.895Z,11.93
2022-10-14T16:51:43.076Z,22.25
2022-10-14T16:54:11.128Z,15.50
2022-10-14T16:56:53.328Z,17.92
2022-10-14T16:59:21.855Z,16.67
2022-10-14T17:01:49.480Z,13.65
2022-10-14T17:04:20.322Z,20.73
2022-10-14T17:06:51.990Z,32.08
2022-10-14T17:09:19.875Z,22.75
2022-10-14T17:11:49.802Z,18.35
2022-10-14T17:14:21.900Z,18.75
2022-10-14T17:16:52.344Z,15.93
2022-10-14T17:19:24.005Z,15.57
2022-10-14T17:21:51.238Z,13.68
2022-10-14T17:24:18.406Z,21.40
2022-10-14T17:26:45.752Z,17.15
2022-10-14T17:29:12.905Z,16.67
2022-10-14T17:31:40.108Z,17.33
2022-10-14T17:34:09.923Z,18.10
2022-10-14T17:36:41.725Z,12.18
2022-10-14T17:39:22.824Z,16.10
2022-10-14T17:41:55.460Z,16.20
2022-10-14T17:44:22.565Z,15.50
2022-10-14T17:46:52.752Z,21.15
2022-10-14T17:49:22.641Z,18.75
2022-10-14T17:51:51.091Z,17.05
2022-10-14T17:54:18.207Z,20.17
2022-10-14T17:56:45.338Z,16.52
2022-10-14T17:59:14.378Z,16.75
2022-10-14T18:04:28.849Z,25.65
2022-10-14T18:06:56.215Z,13.65
2022-10-14T18:09:23.341Z,12.95
2022-10-14T18:14:41.206Z,22.42
2022-10-14T18:17:13.243Z,11.90
2022-10-14T18:19:41.479Z,19.02
2022-10-14T18:22:08.914Z,14.93
2022-10-14T18:24:46.659Z,14.57
2022-10-14T18:27:13.717Z,14.80
2022-10-14T18:29:40.932Z,9.70
2022-10-14T18:32:08.110Z,11.88
2022-10-14T18:34:36.864Z,14.32
2022-10-14T18:37:03.949Z,12.50
2022-10-14T18:39:31.112Z,14.52
2022-10-14T18:41:58.205Z,11.98
2022-10-14T18:44:25.557Z,9.25
2022-10-14T18:46:53.045Z,10.45
2022-10-14T18:49:20.160Z,12.45
2022-10-14T18:51:47.232Z,20.38
2022-10-14T18:54:17.135Z,15.18
2022-10-14T18:56:45.341Z,16.27
2022-10-14T18:59:15.307Z,13.63
2022-10-14T19:01:43.164Z,14.23
2022-10-14T19:04:13.118Z,11.82
2022-10-14T19:06:45.980Z,9.65
2022-10-14T19:09:13.979Z,14.25
2022-10-14T19:11:42.248Z,17.10
2022-10-14T19:14:10.011Z,12.88
2022-10-14T19:16:39.052Z,11.00
2022-10-14T19:19:14.389Z,11.85
2022-10-14T19:21:41.654Z,11.23
2022-10-14T19:24:13.408Z,11.48
2022-10-14T19:26:44.125Z,13.13
2022-10-14T19:29:14.164Z,14.43
2022-10-14T19:31:43.658Z,14.13
2022-10-14T19:34:13.283Z,10.50
2022-10-14T19:36:41.437Z,12.80
2022-10-14T19:39:12.687Z,9.35
2022-10-14T19:41:44.451Z,9.35
2022-10-14T19:44:12.596Z,9.73
2022-10-14T19:46:43.157Z,12.10
2022-10-14T19:49:12.965Z,11.27
2022-10-14T19:51:40.679Z,7.70
2022-10-14T19:54:09.737Z,10.05
2022-10-14T19:56:36.893Z,7.25
2022-10-14T19:59:04.715Z,9.57
2022-10-14T20:01:31.915Z,6.95
2022-10-14T20:04:01.289Z,9.63
2022-10-14T20:06:32.814Z,10.20
2022-10-14T20:09:00.084Z,10.38
2022-10-14T20:11:28.540Z,7.30
2022-10-14T20:13:55.846Z,8.77
2022-10-14T20:16:23.052Z,5.45
2022-10-14T20:18:50.237Z,6.38
2022-10-14T20:21:17.383Z,7.35
2022-10-14T20:23:45.030Z,7.63
2022-10-14T20:26:17.690Z,6.15
2022-10-14T20:28:47.379Z,8.75
2022-10-14T20:31:19.070Z,6.40
2022-10-14T20:33:46.557Z,9.90
2022-10-14T20:36:16.538Z,7.03
2022-10-14T20:38:45.532Z,8.60
2022-10-14T20:41:18.772Z,10.25
2022-10-14T20:43:52.756Z,10.13
2022-10-14T20:46:20.324Z,7.28
2022-10-14T20:48:50.417Z,6.25
2022-10-14T20:51:23.395Z,7.97
2022-10-14T20:53:56.891Z,7.82
2022-10-14T20:56:29.913Z,10.48
2022-10-14T20:59:00.073Z,7.68
2022-10-14T21:01:29.039Z,9.35
2022-10-14T21:03:56.918Z,7.55
2022-10-14T21:06:26.377Z,8.65
2022-10-14T21:08:53.522Z,8.30
2022-10-14T21:11:23.565Z,8.27
2022-10-14T21:13:54.446Z,5.72
2022-10-14T21:18:57.843Z,11.68
2022-10-14T21:21:28.225Z,9.73
2022-10-14T21:23:56.766Z,14.63
2022-10-14T21:26:26.436Z,9.25
2022-10-14T21:28:56.003Z,8.35
2022-10-14T21:31:25.451Z,7.38
2022-10-14T21:34:00.029Z,9.25
2022-10-14T21:36:31.764Z,7.68
2022-10-14T21:39:00.910Z,9.27
2022-10-14T21:41:28.411Z,9.43
2022-10-14T21:43:58.808Z,9.55
2022-10-14T21:46:27.109Z,7.93
2022-10-14T21:48:59.987Z,11.25
2022-10-14T21:51:29.298Z,11.73
2022-10-14T21:53:57.656Z,8.88
2022-10-14T21:56:26.498Z,9.15
2022-10-14T21:58:53.897Z,11.35
2022-10-14T22:01:23.741Z,8.80
2022-10-14T22:03:56.189Z,10.25
2022-10-14T22:06:24.040Z,11.43
2022-10-14T22:08:53.624Z,7.95
2022-10-14T22:11:30.869Z,9.00
2022-10-14T22:13:59.581Z,12.55
2022-10-14T22:16:29.186Z,12.70
2022-10-14T22:18:59.256Z,10.65
2022-10-14T22:21:27.690Z,10.23
2022-10-14T22:23:56.502Z,12.07
2022-10-14T22:26:27.924Z,13.50
2022-10-14T22:29:15.583Z,13.30
2022-10-14T22:31:43.711Z,8.13
2022-10-14T22:34:15.171Z,12.40
2022-10-14T22:36:42.791Z,10.02
2022-10-14T22:39:16.158Z,9.75
2022-10-14T22:41:43.492Z,11.70
2022-10-14T22:44:11.134Z,11.77
2022-10-14T22:46:39.798Z,11.15
2022-10-14T22:49:07.002Z,9.55
2022-10-14T22:51:40.444Z,12.18
2022-10-14T22:54:10.912Z,10.63
2022-10-14T22:56:38.312Z,10.07
2022-10-14T22:59:11.290Z,9.20
2022-10-14T23:01:40.136Z,17.10
2022-10-14T23:04:07.691Z,13.60
2022-10-14T23:06:35.112Z,13.13
2022-10-14T23:09:02.868Z,14.48
2022-10-14T23:11:31.404Z,17.02
2022-10-14T23:14:00.318Z,12.82
2022-10-14T23:16:33.083Z,11.35
2022-10-14T23:19:00.178Z,10.55
2022-10-14T23:21:32.351Z,11.15
2022-10-14T23:24:01.560Z,10.68
2022-10-14T23:26:34.574Z,9.57
2022-10-14T23:29:07.382Z,14.77
2022-10-14T23:31:36.437Z,10.68
2022-10-14T23:34:10.942Z,11.65
2022-10-14T23:36:38.438Z,18.98
2022-10-14T23:39:06.028Z,13.10
2022-10-14T23:41:33.407Z,7.88
2022-10-14T23:44:00.592Z,11.70
2022-10-14T23:46:27.729Z,14.48
2022-10-14T23:49:06.761Z,11.88
2022-10-14T23:51:35.672Z,17.52
2022-10-14T23:54:03.221Z,17.33
2022-10-14T23:56:30.304Z,30.35
2022-10-14T23:58:57.356Z,15.70
